createdAt,value
2019-03-19T00:04:40.580Z,2.23
2019-03-19T00:09:46.651Z,2.17
2019-03-19T00:14:52.822Z,2.10
2019-03-19T00:19:59.007Z,2.20
2019-03-19T00:25:05.049Z,2.63
2019-03-19T00:30:11.268Z,2.00
2019-03-19T00:35:17.428Z,2.20
2019-03-19T00:40:23.506Z,2.37
2019-03-19T00:45:29.450Z,2.20
2019-03-19T00:50:35.616Z,2.00
2019-03-19T00:55:41.798Z,1.77
2019-03-19T01:00:47.920Z,2.27
2019-03-19T01:05:54.987Z,2.50
2019-03-19T01:11:01.111Z,2.20
2019-03-19T01:16:07.339Z,2.47
2019-03-19T01:21:13.419Z,1.90
2019-03-19T01:26:19.483Z,1.70
2019-03-19T01:31:25.650Z,2.20
2019-03-19T01:36:31.727Z,2.00
2019-03-19T01:41:37.872Z,1.90
2019-03-19T01:46:43.887Z,1.90
2019-03-19T01:51:50.066Z,1.80
2019-03-19T01:56:56.167Z,2.10
2019-03-19T02:02:02.237Z,2.13
2019-03-19T02:07:08.346Z,1.90
2019-03-19T02:12:14.462Z,2.20
2019-03-19T02:17:20.646Z,2.50
2019-03-19T02:22:26.782Z,2.20
2019-03-19T02:27:32.799Z,2.07
2019-03-19T02:32:38.993Z,3.03
2019-03-19T02:37:45.061Z,2.30
2019-03-19T02:42:51.128Z,2.47
2019-03-19T02:47:57.118Z,2.37
2019-03-19T02:53:03.297Z,2.60
2019-03-19T02:58:09.437Z,2.73
2019-03-19T03:03:34.217Z,2.60
2019-03-19T03:08:40.460Z,2.40
2019-03-19T03:13:46.619Z,2.87
2019-03-19T03:18:52.694Z,2.50
2019-03-19T03:23:58.911Z,3.37
2019-03-19T03:29:05.157Z,2.67
2019-03-19T03:34:11.245Z,3.07
2019-03-19T03:39:18.332Z,2.90
2019-03-19T03:44:24.428Z,3.23
2019-03-19T03:49:30.513Z,3.00
2019-03-19T03:54:36.633Z,2.13
2019-03-19T03:59:42.855Z,2.40
2019-03-19T04:04:48.897Z,2.60
2019-03-19T04:09:55.013Z,2.50
2019-03-19T04:15:01.135Z,2.57
2019-03-19T04:20:07.895Z,2.43
2019-03-19T04:25:14.076Z,3.43
2019-03-19T04:30:20.603Z,2.43
2019-03-19T04:35:29.361Z,2.33
2019-03-19T04:40:35.349Z,2.10
2019-03-19T04:45:41.417Z,2.70
2019-03-19T04:50:47.557Z,2.33
2019-03-19T04:55:53.851Z,2.10
2019-03-19T05:01:00.017Z,2.50
2019-03-19T05:06:06.139Z,2.30
2019-03-19T05:11:12.294Z,2.73
2019-03-19T05:16:18.372Z,2.37
2019-03-19T05:21:24.533Z,2.57
2019-03-19T05:26:30.252Z,2.67
2019-03-19T05:31:36.970Z,2.87
2019-03-19T05:36:43.287Z,2.50
2019-03-19T05:41:49.381Z,2.90
2019-03-19T05:46:55.416Z,2.53
2019-03-19T05:52:01.512Z,2.90
2019-03-19T05:57:08.603Z,2.60
2019-03-19T06:02:14.760Z,2.80
2019-03-19T06:07:20.932Z,2.70
2019-03-19T06:12:27.051Z,2.83
2019-03-19T06:17:33.154Z,2.73
2019-03-19T06:22:39.295Z,4.93
2019-03-19T06:27:46.365Z,4.40
2019-03-19T06:32:52.477Z,4.23
2019-03-19T06:37:58.514Z,3.87
2019-03-19T06:43:04.533Z,2.87
2019-03-19T06:48:10.578Z,2.77
2019-03-19T06:53:16.769Z,2.53
2019-03-19T06:58:22.862Z,2.73
2019-03-19T07:03:28.930Z,3.00
2019-03-19T07:08:35.195Z,3.57
2019-03-19T07:13:41.261Z,3.20
2019-03-19T07:18:47.345Z,3.03
2019-03-19T07:23:53.466Z,2.47
2019-03-19T07:28:59.613Z,2.77
2019-03-19T07:34:05.760Z,2.60
2019-03-19T07:39:11.836Z,2.83
2019-03-19T07:44:17.917Z,2.80
2019-03-19T07:49:24.018Z,2.87
2019-03-19T07:54:30.297Z,2.77
2019-03-19T07:59:36.401Z,2.90
2019-03-19T08:04:42.515Z,3.23
2019-03-19T08:09:48.697Z,2.90
2019-03-19T08:14:57.595Z,2.60
2019-03-19T08:20:03.555Z,2.83
2019-03-19T08:25:09.825Z,3.37
2019-03-19T08:30:16.932Z,3.20
2019-03-19T08:35:23.102Z,3.80
2019-03-19T08:40:29.168Z,3.00
2019-03-19T08:45:36.347Z,3.57
2019-03-19T08:50:43.456Z,4.00
2019-03-19T08:55:49.678Z,3.80
2019-03-19T09:00:55.908Z,3.73
2019-03-19T09:06:02.032Z,3.93
2019-03-19T09:11:08.077Z,4.20
2019-03-19T09:16:14.296Z,3.87
2019-03-19T09:21:20.409Z,4.03
2019-03-19T09:26:26.492Z,3.80
2019-03-19T09:31:32.555Z,3.20
2019-03-19T09:36:38.686Z,3.57
2019-03-19T09:41:44.800Z,3.67
2019-03-19T09:46:50.995Z,5.03
2019-03-19T09:51:56.956Z,4.03
2019-03-19T09:57:03.064Z,5.57
2019-03-19T10:02:09.230Z,3.70
2019-03-19T10:07:15.389Z,2.80
2019-03-19T10:12:21.478Z,2.93
2019-03-19T10:17:27.705Z,2.83
2019-03-19T10:22:33.835Z,2.90
2019-03-19T10:27:39.837Z,2.73
2019-03-19T10:32:45.845Z,2.90
2019-03-19T10:37:53.398Z,2.30
2019-03-19T10:42:59.541Z,3.07
2019-03-19T10:48:05.890Z,2.20
2019-03-19T10:53:11.919Z,2.70
2019-03-19T10:58:18.048Z,2.63
2019-03-19T11:03:24.064Z,2.30
2019-03-19T11:08:30.254Z,1.90
2019-03-19T11:13:36.320Z,1.70
2019-03-19T11:18:42.314Z,2.07
2019-03-19T11:23:48.355Z,2.37
2019-03-19T11:28:54.546Z,2.60
2019-03-19T11:34:00.648Z,12.90
2019-03-19T11:39:09.560Z,2.83
2019-03-19T11:44:15.681Z,2.30
2019-03-19T11:49:22.738Z,2.60
2019-03-19T11:54:30.028Z,3.33
2019-03-19T11:59:36.192Z,5.73
2019-03-19T12:04:42.299Z,6.47
2019-03-19T12:09:48.365Z,7.33
2019-03-19T12:14:55.981Z,4.43
2019-03-19T12:20:02.067Z,3.37
2019-03-19T12:25:08.256Z,3.20
2019-03-19T12:30:22.089Z,3.03
2019-03-19T12:35:22.617Z,7.53
2019-03-19T12:40:36.956Z,3.60
2019-03-19T12:45:36.571Z,2.50
2019-03-19T12:50:42.695Z,2.13
2019-03-19T12:55:48.868Z,2.00
2019-03-19T13:00:54.896Z,2.00
2019-03-19T13:06:00.829Z,1.87
2019-03-19T13:11:07.129Z,2.20
2019-03-19T13:16:14.292Z,2.17
2019-03-19T13:21:20.386Z,2.50
2019-03-19T13:26:26.471Z,2.37
2019-03-19T13:31:32.443Z,2.13
2019-03-19T13:36:38.488Z,2.13
2019-03-19T13:41:44.568Z,2.00
2019-03-19T13:46:50.636Z,2.50
2019-03-19T13:51:56.749Z,2.40
2019-03-19T13:57:03.000Z,2.20
2019-03-19T14:02:09.177Z,2.03
2019-03-19T14:07:15.266Z,2.10
2019-03-19T14:12:21.448Z,2.87
2019-03-19T14:17:27.517Z,2.17
2019-03-19T14:22:33.484Z,3.07
2019-03-19T14:27:39.561Z,2.70
2019-03-19T14:32:45.737Z,2.60
2019-03-19T14:37:51.828Z,2.40
2019-03-19T14:43:00.221Z,6.17
2019-03-19T14:48:06.278Z,3.83
2019-03-19T14:53:12.611Z,2.67
2019-03-19T14:58:19.596Z,2.47
2019-03-19T15:03:25.964Z,3.17
2019-03-19T15:08:33.173Z,2.53
2019-03-19T15:13:39.554Z,2.70
2019-03-19T15:18:48.281Z,2.70
2019-03-19T15:23:54.976Z,3.57
2019-03-19T15:29:01.206Z,2.20
2019-03-19T15:34:07.317Z,2.80
2019-03-19T15:39:13.725Z,2.10
2019-03-19T15:44:19.820Z,2.20
2019-03-19T15:49:25.989Z,2.43
2019-03-19T15:54:32.140Z,2.03
2019-03-19T15:59:38.320Z,2.00
2019-03-19T16:04:44.503Z,2.67
2019-03-19T16:09:50.592Z,2.63
2019-03-19T16:14:56.548Z,3.00
2019-03-19T16:20:02.914Z,11.83
2019-03-19T16:25:09.317Z,2.50
2019-03-19T16:30:15.694Z,2.77
2019-03-19T16:35:22.815Z,4.90
2019-03-19T16:40:28.880Z,7.17
2019-03-19T16:45:35.027Z,6.00
2019-03-19T16:50:41.155Z,4.80
2019-03-19T16:55:47.241Z,4.60
2019-03-19T17:00:53.486Z,3.73
2019-03-19T17:05:59.569Z,2.80
2019-03-19T17:11:05.827Z,3.17
2019-03-19T17:16:12.001Z,3.57
2019-03-19T17:21:19.385Z,3.10
2019-03-19T17:26:25.614Z,3.63
2019-03-19T17:31:31.764Z,4.17
2019-03-19T17:36:37.870Z,4.83
2019-03-19T17:41:45.140Z,4.70
2019-03-19T17:46:51.494Z,4.80
2019-03-19T17:51:58.040Z,4.70
2019-03-19T17:57:04.122Z,5.40
2019-03-19T18:02:11.556Z,6.43
2019-03-19T18:07:17.766Z,6.60
2019-03-19T18:12:23.962Z,7.47
2019-03-19T18:17:30.052Z,5.40
2019-03-19T18:22:36.250Z,5.60
2019-03-19T18:27:42.505Z,6.30
2019-03-19T18:32:49.060Z,7.90
2019-03-19T18:37:55.124Z,6.37
2019-03-19T18:43:02.004Z,6.57
2019-03-19T18:48:08.178Z,6.23
2019-03-19T18:53:14.303Z,5.40
2019-03-19T18:58:20.405Z,6.37
2019-03-19T19:03:26.672Z,9.23
2019-03-19T19:08:32.714Z,6.00
2019-03-19T19:13:38.895Z,8.00
2019-03-19T19:18:44.951Z,12.37
2019-03-19T19:23:51.027Z,14.93
2019-03-19T19:28:57.159Z,13.03
2019-03-19T19:34:03.292Z,10.47
2019-03-19T19:39:09.766Z,23.90
2019-03-19T19:44:15.982Z,11.63
2019-03-19T19:49:22.118Z,9.10
2019-03-19T19:54:28.325Z,6.70
2019-03-19T19:59:34.504Z,8.67
2019-03-19T20:04:40.812Z,5.67
2019-03-19T20:09:46.947Z,6.40
2019-03-19T20:14:53.029Z,5.30
2019-03-19T20:19:59.136Z,6.03
2019-03-19T20:25:05.484Z,4.23
2019-03-19T20:30:14.611Z,4.57
2019-03-19T20:35:20.670Z,4.50
2019-03-19T20:40:26.678Z,5.13
2019-03-19T20:45:32.762Z,3.87
2019-03-19T20:50:39.102Z,6.50
2019-03-19T20:55:45.296Z,4.67
2019-03-19T21:00:51.387Z,5.40
2019-03-19T21:05:57.368Z,5.00
2019-03-19T21:11:03.327Z,4.93
2019-03-19T21:16:09.301Z,7.20
2019-03-19T21:21:15.455Z,4.23
2019-03-19T21:26:21.650Z,3.73
2019-03-19T21:31:27.709Z,4.20
2019-03-19T21:36:33.938Z,4.47
2019-03-19T21:41:40.880Z,3.13
2019-03-19T21:46:47.070Z,3.33
2019-03-19T21:51:53.284Z,3.50
2019-03-19T21:56:59.333Z,4.03
2019-03-19T22:02:05.589Z,3.87
2019-03-19T22:07:11.771Z,3.40
2019-03-19T22:12:17.868Z,3.60
2019-03-19T22:17:24.077Z,4.43
2019-03-19T22:22:31.268Z,3.50
2019-03-19T22:27:37.494Z,3.00
2019-03-19T22:32:44.411Z,3.10
2019-03-19T22:37:50.666Z,3.20
2019-03-19T22:42:56.798Z,3.30
2019-03-19T22:48:02.812Z,3.07
2019-03-19T22:53:09.929Z,3.20
2019-03-19T22:58:15.997Z,2.90
2019-03-19T23:03:22.388Z,2.93
2019-03-19T23:08:28.445Z,2.87
2019-03-19T23:13:34.527Z,3.40
2019-03-19T23:18:40.630Z,2.90
2019-03-19T23:23:46.664Z,2.57
2019-03-19T23:28:52.799Z,2.50
2019-03-19T23:33:58.828Z,2.73
2019-03-19T23:39:05.119Z,2.53
2019-03-19T23:44:11.373Z,2.67
2019-03-19T23:49:17.358Z,2.90
2019-03-19T23:54:23.317Z,2.77
2019-03-19T23:59:30.520Z,2.90
